Aniara — SKJC — position and weather

sailwx.info

Track history (hours):
 
Tides and Currents Weather Stations Pressure Air Temp Water Temp Dewpoint Dewpoint Depression Visibility Wind Speed Wind Dir Waves Ship Positions

Aniara

Last reported at 2017-Aug-03 09:48 UTC. Time now 2017-Aug-17 09:42 UTC.
Position S 26°44' E 153°11'.
Warning: this ship's position is 13 days out of date.

Length 232 m; draft 8 m.

Type: Cargo ship. MMSI: 266282000.

Date/timePositionNaut miles runAvg speedWind from/ knotsBaromVisibWave heightAir tempDewpointWater temp
2017-Aug-03 09:48S 26°44' E 153°11'414.7
2017-Aug-03 09:30S 26°49' E 153°10'815.1
2017-Aug-03 09:00S 26°56' E 153°12'816.6
2017-Aug-03 08:30S 27°03' E 153°17'816.0
2017-Aug-03 08:00S 27°10' E 153°21'815.5
2017-Aug-03 07:30S 27°16' E 153°16'713.0
2017-Aug-03 07:00S 27°21' E 153°11'2 2.9
2017-Aug-03 06:26S 27°23' E 153°10'0 0.0
2017-Aug-03 05:59S 27°23' E 153°10'0 0.0
2017-Aug-03 04:29S 27°23' E 153°10'0 0.0
2017-Aug-03 03:53S 27°23' E 153°10'0 0.0
2017-Aug-03 03:29S 27°23' E 153°10'0 0.0
2017-Aug-03 02:56S 27°23' E 153°10'0 0.0
2017-Aug-03 02:29S 27°23' E 153°10'0 0.0
2017-Aug-03 01:08S 27°23' E 153°10'0 0.0
2017-Aug-03 00:56S 27°23' E 153°10'0 0.0
2017-Aug-02 23:20S 27°23' E 153°10'0 0.0
2017-Aug-02 22:59S 27°23' E 153°10'0 0.0
2017-Aug-02 22:29S 27°23' E 153°10'0 0.0
2017-Aug-02 21:59S 27°23' E 153°10'0 0.1
2017-Aug-02 21:31S 27°23' E 153°10'1 2.2
2017-Aug-02 21:00S 27°22' E 153°10'612.4
2017-Aug-02 20:30S 27°17' E 153°15'816.1
2017-Aug-02 20:00S 27°11' E 153°21'816.9
2017-Aug-02 19:30S 27°03' E 153°17'917.2
2017-Aug-02 19:00S 26°56' E 153°12'713.6
2017-Aug-02 18:28S 26°49' E 153°10'612.7
2017-Aug-02 18:01S 26°43' E 153°11'9 3.3
2017-Aug-02 15:15S 26°43' E 153°21'0 0.2
2017-Aug-02 15:00S 26°43' E 153°21'0 0.4
2017-Aug-02 14:00S 26°43' E 153°22'1 0.5
2017-Aug-02 12:15S 26°42' E 153°22'44 7.7
2017-Aug-02 06:37S 27°23' E 153°39'2114.5
2017-Aug-02 05:11S 27°44' E 153°42'214.5
2017-Aug-02 05:00S 27°46' E 153°42'  
2017-Jul-29 15:29S 38°06' E 144°55'1415.9
2017-Jul-29 14:36S 37°52' E 144°56'  
Track history (hours):
 
Tides and Currents Weather Stations Pressure Air Temp Water Temp Dewpoint Dewpoint Depression Visibility Wind Speed Wind Dir Waves Ship Positions

Aniara

Last reported at 2017-Aug-03 09:48 UTC. Time now 2017-Aug-17 09:42 UTC.
Position S 26°44' E 153°11'.
Warning: this ship's position is 13 days out of date.

Length 232 m; draft 8 m.

Type: Cargo ship. MMSI: 266282000.

Date/timePositionNaut miles runAvg speedWind from/ knotsBaromVisibWave heightAir tempDewpointWater temp
2017-Aug-03 09:48S 26°44' E 153°11'414.7
2017-Aug-03 09:30S 26°49' E 153°10'815.1
2017-Aug-03 09:00S 26°56' E 153°12'816.6
2017-Aug-03 08:30S 27°03' E 153°17'816.0
2017-Aug-03 08:00S 27°10' E 153°21'815.5
2017-Aug-03 07:30S 27°16' E 153°16'713.0
2017-Aug-03 07:00S 27°21' E 153°11'2 2.9
2017-Aug-03 06:26S 27°23' E 153°10'0 0.0
2017-Aug-03 05:59S 27°23' E 153°10'0 0.0
2017-Aug-03 04:29S 27°23' E 153°10'0 0.0
2017-Aug-03 03:53S 27°23' E 153°10'0 0.0
2017-Aug-03 03:29S 27°23' E 153°10'0 0.0
2017-Aug-03 02:56S 27°23' E 153°10'0 0.0
2017-Aug-03 02:29S 27°23' E 153°10'0 0.0
2017-Aug-03 01:08S 27°23' E 153°10'0 0.0
2017-Aug-03 00:56S 27°23' E 153°10'0 0.0
2017-Aug-02 23:20S 27°23' E 153°10'0 0.0
2017-Aug-02 22:59S 27°23' E 153°10'0 0.0
2017-Aug-02 22:29S 27°23' E 153°10'0 0.0
2017-Aug-02 21:59S 27°23' E 153°10'0 0.1
2017-Aug-02 21:31S 27°23' E 153°10'1 2.2
2017-Aug-02 21:00S 27°22' E 153°10'612.4
2017-Aug-02 20:30S 27°17' E 153°15'816.1
2017-Aug-02 20:00S 27°11' E 153°21'816.9
2017-Aug-02 19:30S 27°03' E 153°17'917.2
2017-Aug-02 19:00S 26°56' E 153°12'713.6
2017-Aug-02 18:28S 26°49' E 153°10'612.7
2017-Aug-02 18:01S 26°43' E 153°11'9 3.3
2017-Aug-02 15:15S 26°43' E 153°21'0 0.2
2017-Aug-02 15:00S 26°43' E 153°21'0 0.4
2017-Aug-02 14:00S 26°43' E 153°22'1 0.5
2017-Aug-02 12:15S 26°42' E 153°22'44 7.7
2017-Aug-02 06:37S 27°23' E 153°39'2114.5
2017-Aug-02 05:11S 27°44' E 153°42'214.5
2017-Aug-02 05:00S 27°46' E 153°42'  
2017-Jul-29 15:29S 38°06' E 144°55'1415.9
2017-Jul-29 14:36S 37°52' E 144°56'  

Dump ship's entire track history